Flugplatz Hamburg-Finkenwerder

Bericht für EDHI

vom 15.07. um 16:50 UTC

Wind 10 kt aus 330°

Sichtweite 10 km oder mehr

gering bewölkt in 4000 ft

Temperatur 18.0°C

Taupunkt 10.0°C

Luftfeuchtigkeit 59%

Luftdruck 1013 hPa

EDHI 151650Z 33010KT 9999 FEW040CB 18/10 Q1013

Prognose für EDHI

vom 15.07. um 14:00 UTC

Zwischen 15:00 UTC und 18:00 UTC

Wind 8 kt aus 310°

Sichtweite 10 km oder mehr

aufgelockert bewölkt in 3000 ft


Zwischen 15:00 UTC und 17:00 UTC zeitweise mit einer Wahrscheinlichkeit von 30%

Wind 13 kt aus 320°

Regenschauer

aufgebrochene Bewölkung in 2000 ft


Zwischen 18:00 und 20:00 UTC übergehend zu

Wind 3 kt aus 290°

Sichtweite 10 km oder mehr

aufgelockert bewölkt in 3000 ft

TAF EDHI 151400Z 1515/1521 31008KT 9999 SCT030 PROB30 TEMPO 1515/1517 32013KT SHRA BKN020CB BECMG 1518/1520 29003KT
Impressum